Tres Portenas, Argentina
Current Conditions -  °F | °C
As of 6:00 AM on Saturday 25 Oct 2014 (Local Time) from SAME Reporting Station
Clear Clear  
Wind Chill: 73°   Ceiling: Unl
Heat Index: 73°   Visibility: 6mi
Dew Point: 55°   Wind: 5mph
Humidity: 53%   Direction: 180°S
Pressure: 29.88"   Gusts: NA
Location:  32.88°S, 68.38°W
Report Text: SAME 250900Z 18004KT CAVOK 23/13 Q1012
Loading
Personal Weather Stations






























Interactive Weather Map
Tropical Storm Tracking
New forecast layout! Learn more

10-Day Weather Forecast

Advertisements
Track Severe Weather on mobile